Airfield :
LOGIN :

Register | Disclaimer

   EN    FR    IT 

 










Legend :    VFR   Marginal VFR   IFR   Intensive IFR   Very Intensive IFR
Visi :
Ceiling :
>= 8 km
>= 3000ft
5 to 8 km
1000 to 3000 ft
1500m to 5 km
500 to 1000 ft
800 to 1500m
200 to 500 ft
< 800m
< 200 ft
Symbols :   Thunderstorms  Fog  Heavy snow  Heavy precipitations  Wind > 20 kt
SIGMETs :     Misc.  Thunderstorms  Icing  Turbulence  Mountain Waves  Volcanic Ashes






- Airport Elevation : 392 ft
- IATA code : CDG


LFPG - Paris-Aeroport Charles De Gaulle

CURRENT METAR :
  • 112230Z 24009KT 9999 SCT026 BKN036 06/04 Q1005 NOSIG

EXPIRED METARs :
  • 112200Z 24009KT 9999 -RA SCT026 BKN040 06/04 Q1005 TEMPO 3000 SHRA BKN008 SCT014TCU
  • 112130Z 24010KT 9999 -RA SCT015 SCT028 BKN040 06/03 Q1006 TEMPO 3000 SHRA BKN008 SCT014TCU
  • 112100Z 23010KT 9999 BKN015 BKN045 06/04 Q1006 TEMPO 3000 SHRA BKN008 SCT014TCU
  • 112030Z 22009KT 210V310 9999 SCT015 SCT039 06/04 Q1006 TEMPO 3000 SHRA BKN008 SCT014TCU
  • 112000Z 20010KT 9999 SCT015 SCT049 06/04 Q1005 TEMPO 3000 SHRA BKN008 SCT014TCU

TAF AMD TAF LFPG
Valid from the 11 at 18:00 until the 13 at 00:00 UTC


111807Z 1118/1224 20010KT 9999 BKN018 TX07/1224Z TN01/1206Z
TEMPO 1119/1121 3000 SHRA BKN008 BKN012 SCT014TCU
TEMPO 1206/1211 BKN006
PROB40
TEMPO 1206/1210 BKN003
BECMG 1211/1213 17015G25KT
BECMG 1213/1215 BKN012
TEMPO 1218/1219 4000 RA
ATIS : +33 1 48 62 10 92



MET'MAP, your aeronautical weather chart ! - Copyright ORBIFLY December 2007 - Disclaimer

ORBIFLY MET'MAP TEAM :

Programming & Development : Alexandra Zaïnal
Concept & original design : Baudouin d'Aumeries
Assistance for programming : Marc-Olivier Méhu
Technical & hardware support : Manuel Goepfert

Contact : metmap@orbifly.com




SOURCES & CREDITS :

   NOAA